createdAt,value
2018-10-16T00:00:56.138Z,99.99
2018-10-16T00:01:56.057Z,99.99
2018-10-16T00:03:48.841Z,99.99
2018-10-16T00:04:48.757Z,99.99
2018-10-16T00:06:41.701Z,99.99
2018-10-16T00:07:41.450Z,99.99
2018-10-16T00:09:33.393Z,99.99
2018-10-16T00:10:33.310Z,99.99
2018-10-16T00:12:25.254Z,99.99
2018-10-16T00:13:25.193Z,99.99
2018-10-16T00:15:18.027Z,99.99
2018-10-16T00:16:17.906Z,99.99
2018-10-16T00:18:09.735Z,99.99
2018-10-16T00:19:09.664Z,99.99
2018-10-16T00:21:02.449Z,99.99
2018-10-16T00:22:02.363Z,99.99
2018-10-16T00:23:55.150Z,99.99
2018-10-16T00:24:55.074Z,99.99
2018-10-16T00:26:46.962Z,99.99
2018-10-16T00:27:46.894Z,99.99
2018-10-16T00:29:39.683Z,99.99
2018-10-16T00:30:39.606Z,99.99
2018-10-16T00:32:32.421Z,99.99
2018-10-16T00:33:32.327Z,99.99
2018-10-16T00:35:25.111Z,99.99
2018-10-16T00:36:25.035Z,99.99
2018-10-16T00:38:17.838Z,99.99
2018-10-16T00:39:17.760Z,99.99
2018-10-16T00:41:09.530Z,99.99
2018-10-16T00:42:09.449Z,99.99
2018-10-16T00:44:01.217Z,99.99
2018-10-16T00:45:01.151Z,99.99
2018-10-16T00:46:53.902Z,99.99
2018-10-16T00:47:53.832Z,99.99
2018-10-16T00:49:46.669Z,99.99
2018-10-16T00:50:46.552Z,99.99
2018-10-16T00:52:39.336Z,99.99
2018-10-16T00:53:39.278Z,99.99
2018-10-16T00:55:32.043Z,99.99
2018-10-16T00:56:31.943Z,99.99
2018-10-16T00:58:23.832Z,99.99
2018-10-16T00:59:23.764Z,99.99
2018-10-16T01:01:15.674Z,99.99
2018-10-16T01:02:15.589Z,99.99
2018-10-16T01:04:07.488Z,99.99
2018-10-16T01:05:07.428Z,99.99
2018-10-16T01:07:00.208Z,99.99
2018-10-16T01:08:00.138Z,99.99
2018-10-16T01:09:51.909Z,99.99
2018-10-16T01:10:51.832Z,99.99
2018-10-16T01:12:43.683Z,99.99
2018-10-16T01:13:43.623Z,99.99
2018-10-16T01:15:36.435Z,99.99
2018-10-16T01:16:36.355Z,99.99
2018-10-16T01:18:29.130Z,99.99
2018-10-16T01:19:29.060Z,99.99
2018-10-16T01:21:21.822Z,99.99
2018-10-16T01:22:21.781Z,99.99
2018-10-16T01:24:14.582Z,99.99
2018-10-16T01:25:14.464Z,99.99
2018-10-16T01:27:07.239Z,99.99
2018-10-16T01:28:07.184Z,99.99
2018-10-16T01:29:59.946Z,99.99
2018-10-16T01:30:59.870Z,99.99
2018-10-16T01:32:51.826Z,99.99
2018-10-16T01:33:51.760Z,99.99
2018-10-16T01:35:44.532Z,99.99
2018-10-16T01:36:44.448Z,99.99
2018-10-16T01:38:37.292Z,99.99
2018-10-16T01:39:37.228Z,99.99
2018-10-16T01:41:29.045Z,99.99
2018-10-16T01:42:28.967Z,99.99
2018-10-16T01:44:20.856Z,99.99
2018-10-16T01:45:20.790Z,99.99
2018-10-16T01:47:13.577Z,99.99
2018-10-16T01:48:13.489Z,99.99
2018-10-16T01:50:06.281Z,99.99
2018-10-16T01:51:06.195Z,99.99
2018-10-16T01:52:58.988Z,99.99
2018-10-16T01:53:58.916Z,99.99
2018-10-16T01:55:51.691Z,99.99
2018-10-16T01:56:51.610Z,99.99
2018-10-16T01:58:44.376Z,99.99
2018-10-16T01:59:44.310Z,99.99
2018-10-16T02:01:37.096Z,99.99
2018-10-16T02:02:37.096Z,99.99
2018-10-16T02:04:29.817Z,99.99
2018-10-16T02:05:29.736Z,99.99
2018-10-16T02:07:22.527Z,99.99
2018-10-16T02:08:22.430Z,99.99
2018-10-16T02:10:15.234Z,99.99
2018-10-16T02:11:15.150Z,99.99
2018-10-16T02:13:07.975Z,99.99
2018-10-16T02:14:07.926Z,99.99
2018-10-16T02:16:00.686Z,99.99
2018-10-16T02:17:00.602Z,99.99
2018-10-16T02:18:53.446Z,99.99
2018-10-16T02:19:53.349Z,99.99
2018-10-16T02:21:45.308Z,99.99
2018-10-16T02:22:45.229Z,99.99
2018-10-16T02:24:37.990Z,99.99
2018-10-16T02:25:37.925Z,99.99
2018-10-16T02:27:30.716Z,99.99
2018-10-16T02:28:30.623Z,99.99
2018-10-16T02:30:23.401Z,99.99
2018-10-16T02:31:23.318Z,99.99
2018-10-16T02:33:16.100Z,99.99
2018-10-16T02:34:16.014Z,99.99
2018-10-16T02:36:08.795Z,99.99
2018-10-16T02:37:08.706Z,99.99
2018-10-16T02:39:01.550Z,99.99
2018-10-16T02:40:01.464Z,99.99
2018-10-16T02:41:54.238Z,99.99
2018-10-16T02:42:54.161Z,99.99
2018-10-16T02:44:46.940Z,99.99
2018-10-16T02:45:46.877Z,99.99
2018-10-16T02:47:39.641Z,99.99
2018-10-16T02:48:39.566Z,99.99
2018-10-16T02:50:32.340Z,99.99
2018-10-16T02:51:32.263Z,99.99
2018-10-16T02:53:25.027Z,99.99
2018-10-16T02:54:24.966Z,99.99
2018-10-16T02:56:17.768Z,99.99
2018-10-16T02:57:17.677Z,99.99
2018-10-16T02:59:10.440Z,99.99
2018-10-16T03:00:10.381Z,99.99
2018-10-16T03:02:03.160Z,99.99
2018-10-16T03:03:03.078Z,99.99
2018-10-16T03:04:55.845Z,99.99
2018-10-16T03:05:55.783Z,99.99
2018-10-16T03:07:48.569Z,99.99
2018-10-16T03:08:48.488Z,99.99
2018-10-16T03:10:41.273Z,99.99
2018-10-16T03:11:41.197Z,99.99
2018-10-16T03:13:33.964Z,99.99
2018-10-16T03:14:33.897Z,99.99
2018-10-16T03:16:26.673Z,99.99
2018-10-16T03:17:26.594Z,99.99
2018-10-16T03:19:19.439Z,99.99
2018-10-16T03:20:19.421Z,99.99
2018-10-16T03:22:12.118Z,99.99
2018-10-16T03:23:12.050Z,99.99
2018-10-16T03:25:04.812Z,99.99
2018-10-16T03:26:04.737Z,99.99
2018-10-16T03:27:56.728Z,99.99
2018-10-16T03:28:56.641Z,99.99
2018-10-16T03:30:48.524Z,99.99
2018-10-16T03:31:48.464Z,99.99
2018-10-16T03:33:41.255Z,99.99
2018-10-16T03:34:41.181Z,99.99
2018-10-16T03:36:33.987Z,99.99
2018-10-16T03:37:33.895Z,99.99
2018-10-16T03:39:26.676Z,99.99
2018-10-16T03:40:26.615Z,99.99
2018-10-16T03:42:19.433Z,99.99
2018-10-16T03:43:19.301Z,99.99
2018-10-16T03:45:11.284Z,99.99
2018-10-16T03:46:11.203Z,99.99
2018-10-16T03:48:03.992Z,99.99
2018-10-16T03:49:03.950Z,99.99
2018-10-16T03:50:56.692Z,99.99
2018-10-16T03:51:56.607Z,99.99
2018-10-16T03:53:49.410Z,99.99
2018-10-16T03:54:49.334Z,99.99
2018-10-16T03:56:42.194Z,99.99
2018-10-16T03:57:42.102Z,99.99
2018-10-16T03:59:34.889Z,99.99
2018-10-16T04:00:34.812Z,99.99
2018-10-16T04:02:27.583Z,99.99
2018-10-16T04:03:27.507Z,99.99
2018-10-16T04:05:20.255Z,99.99
2018-10-16T04:06:20.195Z,99.99
2018-10-16T04:08:11.966Z,99.99
2018-10-16T04:09:11.893Z,99.99
2018-10-16T04:11:04.708Z,99.99
2018-10-16T04:12:04.619Z,99.99
2018-10-16T04:13:57.477Z,99.99
2018-10-16T04:14:57.311Z,99.99
2018-10-16T04:16:49.073Z,99.99
2018-10-16T04:17:49.000Z,99.99
2018-10-16T04:19:41.790Z,99.99
2018-10-16T04:20:41.711Z,99.99
2018-10-16T04:22:34.597Z,99.99
2018-10-16T04:23:34.397Z,99.99
2018-10-16T04:25:27.169Z,99.99
2018-10-16T04:26:27.106Z,99.99
2018-10-16T04:28:19.184Z,99.99
2018-10-16T04:29:19.078Z,99.99
2018-10-16T04:31:11.721Z,99.99
2018-10-16T04:32:11.651Z,99.99
2018-10-16T04:34:04.457Z,99.99
2018-10-16T04:35:04.392Z,99.99
2018-10-16T04:36:57.184Z,99.99
2018-10-16T04:37:57.088Z,99.99
2018-10-16T04:39:49.916Z,99.99
2018-10-16T04:40:49.830Z,99.99
2018-10-16T04:42:42.583Z,99.99
2018-10-16T04:43:42.520Z,99.99
2018-10-16T04:45:35.339Z,99.99
2018-10-16T04:46:35.234Z,99.99
2018-10-16T04:48:27.997Z,99.99
2018-10-16T04:49:27.917Z,99.99
2018-10-16T04:51:20.682Z,99.99
2018-10-16T04:52:20.607Z,99.99
2018-10-16T04:54:12.543Z,99.99
2018-10-16T04:55:12.501Z,99.99
2018-10-16T04:57:05.252Z,99.99
2018-10-16T04:58:05.153Z,99.99
2018-10-16T04:59:57.928Z,99.99
2018-10-16T05:00:57.862Z,99.99
2018-10-16T05:02:50.675Z,99.99
2018-10-16T05:03:50.576Z,99.99
2018-10-16T05:05:43.343Z,99.99
2018-10-16T05:06:43.270Z,99.99
2018-10-16T05:08:35.208Z,99.99
2018-10-16T05:09:35.123Z,99.99
2018-10-16T05:11:27.897Z,99.99
2018-10-16T05:12:27.827Z,99.99
2018-10-16T05:14:20.615Z,99.99
2018-10-16T05:15:20.523Z,99.99
2018-10-16T05:17:13.298Z,99.99
2018-10-16T05:18:13.226Z,99.99
2018-10-16T05:20:06.058Z,99.99
2018-10-16T05:21:05.968Z,99.99
2018-10-16T05:22:57.792Z,99.99
2018-10-16T05:23:57.711Z,99.99
2018-10-16T05:25:50.521Z,99.99
2018-10-16T05:26:50.461Z,99.99
2018-10-16T05:28:43.268Z,99.99
2018-10-16T05:29:43.190Z,99.99
2018-10-16T05:31:36.169Z,99.99
2018-10-16T05:32:35.865Z,99.99
2018-10-16T05:34:28.667Z,99.99
2018-10-16T05:35:28.564Z,99.99
2018-10-16T05:37:20.584Z,99.99
2018-10-16T05:38:20.434Z,99.99
2018-10-16T05:40:13.203Z,99.99
2018-10-16T05:41:13.125Z,99.99
2018-10-16T05:43:05.960Z,99.99
2018-10-16T05:44:05.878Z,99.99
2018-10-16T05:45:58.718Z,99.99
2018-10-16T05:46:58.620Z,99.99
2018-10-16T05:48:51.464Z,99.99
2018-10-16T05:49:51.325Z,99.99
2018-10-16T05:51:44.880Z,99.99
2018-10-16T05:52:44.815Z,99.99
2018-10-16T05:54:37.589Z,99.99
2018-10-16T05:55:37.512Z,99.99
2018-10-16T05:57:30.271Z,99.99
2018-10-16T05:58:30.206Z,99.99
2018-10-16T06:00:22.133Z,99.99
2018-10-16T06:01:22.034Z,99.99
2018-10-16T06:03:13.938Z,99.99
2018-10-16T06:04:13.864Z,99.99
2018-10-16T06:06:06.636Z,99.99
2018-10-16T06:07:06.563Z,99.99
2018-10-16T06:08:59.351Z,99.99
2018-10-16T06:09:59.275Z,99.99
2018-10-16T06:11:52.059Z,99.99
2018-10-16T06:12:51.997Z,99.99
2018-10-16T06:14:44.774Z,99.99
2018-10-16T06:15:44.687Z,99.99
2018-10-16T06:17:37.455Z,99.99
2018-10-16T06:18:37.381Z,99.99
2018-10-16T06:20:29.202Z,99.99
2018-10-16T06:21:29.084Z,99.99
2018-10-16T06:23:21.861Z,99.99
2018-10-16T06:24:21.843Z,99.99
2018-10-16T06:26:14.562Z,99.99
2018-10-16T06:27:14.487Z,99.99
2018-10-16T06:29:06.405Z,99.99
2018-10-16T06:30:06.373Z,99.99
2018-10-16T06:31:59.125Z,99.99
2018-10-16T06:32:59.037Z,99.99
2018-10-16T06:34:51.830Z,99.99
2018-10-16T06:35:51.747Z,99.99
2018-10-16T06:37:43.683Z,99.99
2018-10-16T06:38:43.598Z,99.99
2018-10-16T06:40:36.432Z,99.99
2018-10-16T06:41:36.345Z,99.99
2018-10-16T06:43:29.092Z,99.99
2018-10-16T06:44:29.016Z,99.99
2018-10-16T06:46:20.834Z,99.99
2018-10-16T06:47:20.802Z,99.99
2018-10-16T06:49:13.536Z,99.99
2018-10-16T06:50:13.454Z,99.99
2018-10-16T06:52:06.252Z,99.99
2018-10-16T06:53:06.168Z,99.99
2018-10-16T06:54:58.994Z,99.99
2018-10-16T06:55:58.873Z,99.99
2018-10-16T06:57:51.676Z,99.99
2018-10-16T06:58:51.609Z,99.99
2018-10-16T07:00:44.441Z,99.99
2018-10-16T07:01:44.368Z,99.99
2018-10-16T07:03:37.129Z,99.99
2018-10-16T07:04:37.064Z,99.99
2018-10-16T07:06:29.112Z,99.99
2018-10-16T07:07:28.975Z,99.99
2018-10-16T07:09:21.733Z,99.99
2018-10-16T07:10:21.653Z,99.99
2018-10-16T07:12:14.473Z,99.99
2018-10-16T07:13:14.368Z,99.99
2018-10-16T07:15:07.272Z,99.99
2018-10-16T07:16:07.121Z,99.99
2018-10-16T07:17:59.875Z,99.99
2018-10-16T07:18:59.823Z,99.99
2018-10-16T07:20:51.608Z,99.99
2018-10-16T07:21:51.547Z,99.99
2018-10-16T07:23:44.387Z,99.99
2018-10-16T07:24:44.237Z,99.99
2018-10-16T07:26:37.072Z,99.99
2018-10-16T07:27:37.012Z,99.99
2018-10-16T07:29:29.789Z,99.99
2018-10-16T07:30:29.704Z,99.99
2018-10-16T07:32:21.567Z,99.99
2018-10-16T07:33:21.558Z,99.99
2018-10-16T07:35:14.293Z,99.99
2018-10-16T07:36:14.208Z,99.99
2018-10-16T07:38:07.038Z,96.70
2018-10-16T07:39:06.922Z,95.51
2018-10-16T07:40:58.835Z,92.72
2018-10-16T07:41:58.750Z,90.28
2018-10-16T07:43:51.583Z,86.62
2018-10-16T07:44:51.542Z,85.28
2018-10-16T07:46:44.327Z,85.08
2018-10-16T07:47:44.209Z,84.75
2018-10-16T07:49:36.009Z,86.72
2018-10-16T07:50:35.920Z,87.01
2018-10-16T07:52:27.918Z,86.00
2018-10-16T07:53:27.844Z,85.42
2018-10-16T07:55:20.671Z,85.48
2018-10-16T07:56:20.590Z,86.15
2018-10-16T07:58:13.401Z,87.40
2018-10-16T07:59:13.338Z,87.88
2018-10-16T08:01:05.134Z,86.77
2018-10-16T08:02:05.044Z,85.33
2018-10-16T08:03:57.818Z,87.30
2018-10-16T08:04:57.768Z,87.59
2018-10-16T08:06:50.570Z,88.41
2018-10-16T08:07:50.474Z,89.70
2018-10-16T08:09:42.293Z,88.55
2018-10-16T08:10:42.226Z,87.82
2018-10-16T08:12:35.052Z,86.72
2018-10-16T08:13:34.955Z,85.03
2018-10-16T08:15:26.861Z,83.34
2018-10-16T08:16:26.793Z,82.67
2018-10-16T08:18:19.566Z,81.75
2018-10-16T08:19:19.501Z,80.44
2018-10-16T08:21:12.302Z,79.03
2018-10-16T08:22:12.267Z,76.50
2018-10-16T08:24:04.135Z,76.67
2018-10-16T08:25:04.067Z,75.20
2018-10-16T08:26:56.960Z,72.73
2018-10-16T08:27:56.799Z,71.67
2018-10-16T08:29:50.666Z,70.74
2018-10-16T08:30:51.198Z,70.06
2018-10-16T08:32:43.773Z,70.06
2018-10-16T08:33:43.501Z,69.90
2018-10-16T08:35:35.922Z,67.65
2018-10-16T08:36:35.895Z,69.07
2018-10-16T08:38:28.651Z,70.54
2018-10-16T08:39:28.585Z,69.52
2018-10-16T08:41:21.405Z,68.10
2018-10-16T08:42:21.336Z,67.43
2018-10-16T08:44:14.381Z,67.46
2018-10-16T08:45:14.113Z,66.01
2018-10-16T08:47:07.335Z,64.98
2018-10-16T08:48:07.440Z,67.01
2018-10-16T08:50:00.174Z,68.52
2018-10-16T08:51:00.974Z,69.10
2018-10-16T08:52:54.932Z,68.55
2018-10-16T08:53:54.957Z,67.62
2018-10-16T08:55:47.784Z,66.43
2018-10-16T08:56:47.818Z,67.27
2018-10-16T08:58:40.890Z,69.68
2018-10-16T08:59:40.843Z,68.33
2018-10-16T09:02:33.540Z,68.91
2018-10-16T09:04:26.687Z,68.20
2018-10-16T09:05:26.676Z,67.24
2018-10-16T09:07:19.680Z,66.36
2018-10-16T09:08:19.775Z,65.37
2018-10-16T09:10:12.268Z,66.17
2018-10-16T09:11:12.348Z,66.75
2018-10-16T09:13:05.425Z,67.81
2018-10-16T09:14:05.273Z,66.40
2018-10-16T09:15:56.900Z,65.34
2018-10-16T09:16:56.816Z,65.91
2018-10-16T09:18:49.603Z,64.98
2018-10-16T09:19:49.534Z,65.37
2018-10-16T09:21:41.556Z,64.59
2018-10-16T09:22:41.461Z,65.53
2018-10-16T09:24:34.330Z,65.24
2018-10-16T09:25:34.209Z,65.66
2018-10-16T09:27:27.052Z,65.30
2018-10-16T09:28:26.980Z,65.08
2018-10-16T09:30:19.844Z,64.89
2018-10-16T09:31:19.806Z,64.86
2018-10-16T09:33:12.565Z,66.43
2018-10-16T09:34:12.491Z,66.82
2018-10-16T09:36:05.315Z,66.36
2018-10-16T09:37:05.213Z,65.11
2018-10-16T09:38:57.994Z,64.05
2018-10-16T09:39:57.938Z,64.34
2018-10-16T09:41:50.735Z,62.70
2018-10-16T09:42:50.663Z,64.01
2018-10-16T09:44:43.438Z,65.11
2018-10-16T09:45:43.375Z,65.72
2018-10-16T09:47:36.179Z,65.05
2018-10-16T09:48:36.117Z,65.43
2018-10-16T09:50:28.947Z,64.76
2018-10-16T09:51:28.893Z,64.56
2018-10-16T09:53:21.679Z,65.85
2018-10-16T09:54:21.609Z,65.37
2018-10-16T09:56:14.393Z,63.31
2018-10-16T09:57:14.337Z,63.98
2018-10-16T09:59:07.154Z,64.18
2018-10-16T10:00:07.094Z,64.40
2018-10-16T10:01:59.904Z,64.18
2018-10-16T10:02:59.813Z,64.28
2018-10-16T10:04:52.611Z,64.37
2018-10-16T10:05:52.549Z,64.28
2018-10-16T10:07:45.373Z,64.47
2018-10-16T10:08:45.287Z,65.63
2018-10-16T10:10:38.095Z,64.95
2018-10-16T10:11:38.043Z,64.76
2018-10-16T10:13:30.837Z,64.37
2018-10-16T10:14:30.770Z,63.70
2018-10-16T10:16:23.549Z,64.92
2018-10-16T10:17:23.488Z,64.86
2018-10-16T10:19:16.326Z,65.14
2018-10-16T10:20:16.250Z,64.66
2018-10-16T10:22:08.100Z,64.86
2018-10-16T10:23:08.016Z,64.76
2018-10-16T10:25:00.896Z,64.95
2018-10-16T10:26:00.811Z,64.63
2018-10-16T10:27:53.606Z,64.92
2018-10-16T10:28:53.568Z,65.01
2018-10-16T10:30:46.423Z,64.92
2018-10-16T10:31:46.325Z,65.11
2018-10-16T10:33:39.123Z,65.11
2018-10-16T10:34:39.044Z,66.20
2018-10-16T10:36:31.829Z,64.24
2018-10-16T10:37:31.766Z,64.63
2018-10-16T10:39:24.590Z,65.69
2018-10-16T10:40:24.537Z,66.27
2018-10-16T10:42:17.438Z,65.24
2018-10-16T10:43:17.300Z,64.56
2018-10-16T10:45:10.025Z,65.63
2018-10-16T10:46:09.975Z,64.56
2018-10-16T10:48:01.949Z,63.21
2018-10-16T10:49:01.867Z,64.86
2018-10-16T10:50:54.844Z,65.24
2018-10-16T10:51:54.628Z,64.76
2018-10-16T10:53:47.410Z,64.92
2018-10-16T10:54:47.353Z,65.11
2018-10-16T10:56:40.241Z,65.78
2018-10-16T10:57:40.091Z,64.24
2018-10-16T10:59:32.877Z,65.20
2018-10-16T11:00:32.849Z,64.69
2018-10-16T11:02:25.603Z,66.52
2018-10-16T11:03:25.701Z,67.20
2018-10-16T11:05:18.392Z,67.94
2018-10-16T11:06:18.262Z,68.29
2018-10-16T11:08:11.064Z,67.39
2018-10-16T11:09:11.045Z,68.96
2018-10-16T11:11:03.791Z,69.25
2018-10-16T11:12:03.726Z,69.25
2018-10-16T11:13:56.543Z,68.87
2018-10-16T11:14:56.482Z,69.73
2018-10-16T11:16:49.261Z,69.67
2018-10-16T11:17:49.202Z,69.06
2018-10-16T11:19:41.987Z,69.29
2018-10-16T11:20:41.926Z,69.29
2018-10-16T11:22:34.703Z,68.80
2018-10-16T11:23:34.632Z,68.87
2018-10-16T11:25:27.425Z,68.52
2018-10-16T11:26:27.360Z,68.04
2018-10-16T11:28:20.192Z,68.23
2018-10-16T11:29:20.159Z,67.55
2018-10-16T11:31:12.909Z,69.29
2018-10-16T11:32:12.849Z,68.80
2018-10-16T11:34:05.705Z,68.99
2018-10-16T11:35:05.609Z,68.71
2018-10-16T11:36:57.490Z,67.55
2018-10-16T11:37:57.397Z,68.42
2018-10-16T11:39:50.210Z,66.69
2018-10-16T11:40:50.132Z,67.16
2018-10-16T11:42:42.958Z,66.78
2018-10-16T11:43:42.861Z,68.84
2018-10-16T11:45:34.772Z,67.20
2018-10-16T11:46:34.666Z,67.20
2018-10-16T11:48:27.475Z,66.72
2018-10-16T11:49:27.369Z,66.59
2018-10-16T11:51:20.180Z,67.65
2018-10-16T11:52:20.209Z,68.32
2018-10-16T11:54:11.975Z,66.20
2018-10-16T11:55:11.864Z,66.72
2018-10-16T11:57:04.627Z,66.43
2018-10-16T11:58:04.561Z,66.43
2018-10-16T11:59:57.351Z,66.43
2018-10-16T12:00:57.278Z,66.52
2018-10-16T12:02:50.076Z,66.24
2018-10-16T12:03:50.009Z,67.78
2018-10-16T12:05:42.920Z,66.94
2018-10-16T12:06:42.746Z,66.85
2018-10-16T12:08:35.570Z,66.66
2018-10-16T12:09:35.488Z,66.56
2018-10-16T12:11:28.268Z,64.92
2018-10-16T12:12:28.205Z,65.01
2018-10-16T12:14:21.004Z,68.49
2018-10-16T12:15:20.915Z,66.94
2018-10-16T12:17:13.787Z,67.52
2018-10-16T12:18:13.730Z,65.98
2018-10-16T12:20:06.715Z,65.78
2018-10-16T12:21:06.500Z,67.33
2018-10-16T12:22:58.477Z,66.27
2018-10-16T12:23:58.407Z,65.88
2018-10-16T12:25:51.251Z,64.92
2018-10-16T12:26:51.341Z,64.86
2018-10-16T12:28:42.992Z,65.40
2018-10-16T12:29:42.863Z,65.40
2018-10-16T12:31:34.701Z,67.81
2018-10-16T12:32:34.626Z,67.62
2018-10-16T12:34:27.426Z,67.91
2018-10-16T12:35:27.357Z,68.10
2018-10-16T12:37:20.479Z,68.87
2018-10-16T12:38:20.400Z,66.08
2018-10-16T12:40:13.265Z,67.81
2018-10-16T12:41:13.218Z,66.36
2018-10-16T12:43:06.023Z,66.17
2018-10-16T12:44:05.925Z,67.14
2018-10-16T12:45:58.728Z,67.23
2018-10-16T12:46:58.688Z,67.81
2018-10-16T12:48:51.453Z,66.94
2018-10-16T12:49:51.371Z,67.43
2018-10-16T12:51:44.178Z,67.78
2018-10-16T12:52:44.098Z,66.82
2018-10-16T12:54:36.921Z,68.35
2018-10-16T12:55:36.829Z,68.74
2018-10-16T12:57:29.720Z,67.40
2018-10-16T12:58:29.551Z,67.58
2018-10-16T13:00:22.374Z,69.42
2018-10-16T13:01:22.275Z,69.32
2018-10-16T13:03:15.158Z,69.35
2018-10-16T13:04:15.021Z,68.68
2018-10-16T13:06:07.827Z,67.91
2018-10-16T13:07:07.730Z,66.94
2018-10-16T13:09:00.577Z,66.43
2018-10-16T13:10:00.471Z,67.49
2018-10-16T13:11:52.464Z,68.26
2018-10-16T13:12:52.393Z,67.78
2018-10-16T13:14:45.288Z,67.36
2018-10-16T13:15:45.216Z,68.13
2018-10-16T13:17:38.154Z,68.71
2018-10-16T13:18:37.974Z,68.90
2018-10-16T13:20:30.768Z,68.99
2018-10-16T13:21:30.697Z,68.71
2018-10-16T13:23:23.530Z,69.96
2018-10-16T13:24:23.422Z,70.21
2018-10-16T13:26:16.221Z,70.41
2018-10-16T13:27:16.141Z,69.54
2018-10-16T13:29:09.020Z,70.21
2018-10-16T13:30:08.973Z,70.31
2018-10-16T13:32:01.742Z,69.73
2018-10-16T13:33:01.632Z,71.28
2018-10-16T13:34:54.458Z,68.77
2018-10-16T13:35:54.345Z,69.06
2018-10-16T13:37:47.176Z,70.02
2018-10-16T13:38:47.093Z,70.31
2018-10-16T13:40:39.881Z,68.00
2018-10-16T13:41:39.812Z,68.77
2018-10-16T13:43:32.598Z,68.58
2018-10-16T13:44:32.619Z,69.29
2018-10-16T13:46:25.336Z,68.42
2018-10-16T13:47:25.292Z,69.57
2018-10-16T13:49:18.057Z,68.10
2018-10-16T13:50:17.980Z,67.71
2018-10-16T13:52:09.879Z,69.09
2018-10-16T13:53:09.781Z,69.64
2018-10-16T13:55:02.613Z,69.64
2018-10-16T13:56:02.536Z,69.54
2018-10-16T13:57:55.385Z,69.54
2018-10-16T13:58:55.262Z,68.64
2018-10-16T14:00:48.063Z,68.74
2018-10-16T14:01:47.984Z,69.12
2018-10-16T14:03:40.780Z,70.09
2018-10-16T14:04:40.756Z,69.60
2018-10-16T14:06:33.561Z,70.37
2018-10-16T14:07:33.451Z,70.70
2018-10-16T14:09:26.230Z,70.76
2018-10-16T14:10:26.161Z,70.47
2018-10-16T14:12:18.975Z,70.56
2018-10-16T14:13:18.901Z,70.86
2018-10-16T14:15:11.688Z,72.11
2018-10-16T14:16:11.740Z,71.04
2018-10-16T14:18:04.443Z,70.47
2018-10-16T14:19:04.374Z,72.78
2018-10-16T14:20:57.182Z,72.30
2018-10-16T14:21:57.145Z,70.56
2018-10-16T14:23:49.895Z,71.91
2018-10-16T14:24:49.817Z,71.04
2018-10-16T14:26:42.670Z,71.14
2018-10-16T14:27:42.595Z,72.68
2018-10-16T14:29:35.363Z,70.66
2018-10-16T14:30:35.297Z,73.26
2018-10-16T14:32:28.108Z,72.74
2018-10-16T14:33:28.018Z,72.36
2018-10-16T14:35:20.838Z,72.26
2018-10-16T14:36:20.736Z,72.17
2018-10-16T14:38:12.565Z,72.36
2018-10-16T14:39:12.443Z,71.88
2018-10-16T14:41:05.225Z,72.26
2018-10-16T14:42:05.163Z,73.13
2018-10-16T14:43:58.034Z,73.80
2018-10-16T14:44:57.882Z,73.13
2018-10-16T14:46:50.670Z,72.74
2018-10-16T14:47:50.735Z,72.36
2018-10-16T14:49:43.427Z,73.80
2018-10-16T14:50:43.357Z,74.48
2018-10-16T14:52:36.325Z,74.57
2018-10-16T14:53:36.180Z,73.99
2018-10-16T14:55:28.971Z,74.29
2018-10-16T14:56:28.920Z,74.67
2018-10-16T14:58:21.710Z,74.25
2018-10-16T14:59:21.651Z,73.86
2018-10-16T15:01:14.445Z,74.82
2018-10-16T15:02:14.477Z,75.88
2018-10-16T15:04:07.234Z,74.44
2018-10-16T15:05:07.074Z,75.11
2018-10-16T15:06:59.880Z,75.31
2018-10-16T15:07:59.823Z,75.40
2018-10-16T15:09:52.647Z,78.83
2018-10-16T15:10:52.525Z,79.69
2018-10-16T15:12:45.344Z,77.48
2018-10-16T15:13:45.260Z,76.52
2018-10-16T15:15:38.085Z,77.09
2018-10-16T15:16:38.044Z,76.52
2018-10-16T15:18:30.781Z,78.15
2018-10-16T15:19:30.710Z,79.46
2018-10-16T15:21:23.519Z,80.42
2018-10-16T15:22:23.437Z,78.98
2018-10-16T15:24:16.313Z,80.04
2018-10-16T15:25:16.260Z,79.27
2018-10-16T15:27:09.111Z,82.49
2018-10-16T15:28:09.044Z,81.43
2018-10-16T15:30:01.764Z,83.07
2018-10-16T15:31:01.706Z,84.41
2018-10-16T15:32:54.529Z,84.47
2018-10-16T15:33:54.442Z,83.51
2018-10-16T15:35:47.287Z,84.85
2018-10-16T15:36:47.139Z,86.38
2018-10-16T15:38:39.926Z,87.54
2018-10-16T15:39:39.860Z,87.88
2018-10-16T15:41:32.674Z,89.22
2018-10-16T15:42:32.591Z,88.45
2018-10-16T15:44:25.376Z,88.35
2018-10-16T15:45:25.325Z,90.04
2018-10-16T15:47:18.088Z,90.23
2018-10-16T15:48:18.450Z,90.04
2018-10-16T15:50:10.864Z,89.85
2018-10-16T15:51:10.727Z,89.56
2018-10-16T15:53:05.035Z,89.75
2018-10-16T15:54:04.469Z,90.04
2018-10-16T15:55:57.762Z,91.96
2018-10-16T15:56:57.271Z,92.54
2018-10-16T15:58:50.072Z,93.11
2018-10-16T15:59:49.978Z,93.11
2018-10-16T16:01:43.021Z,93.35
2018-10-16T16:02:42.893Z,93.54
2018-10-16T16:04:35.577Z,93.06
2018-10-16T16:05:35.504Z,94.40
2018-10-16T16:07:28.404Z,94.98
2018-10-16T16:08:28.254Z,94.55
2018-10-16T16:10:21.064Z,94.79
2018-10-16T16:11:21.004Z,94.17
2018-10-16T16:13:13.814Z,94.93
2018-10-16T16:14:13.840Z,95.41
2018-10-16T16:16:06.604Z,95.60
2018-10-16T16:17:06.484Z,96.27
2018-10-16T16:18:58.376Z,96.66
2018-10-16T16:19:58.311Z,98.10
2018-10-16T16:21:51.116Z,97.66
2018-10-16T16:22:51.022Z,99.58
2018-10-16T16:24:44.093Z,99.99
2018-10-16T16:25:43.748Z,99.96
2018-10-16T16:27:36.546Z,99.99
2018-10-16T16:28:36.463Z,99.99
2018-10-16T16:30:28.210Z,99.99
2018-10-16T16:31:28.147Z,99.99
2018-10-16T16:33:47.093Z,99.99
2018-10-16T16:34:47.023Z,99.99
2018-10-16T16:36:39.878Z,99.99
2018-10-16T16:37:39.740Z,99.99
2018-10-16T16:39:32.538Z,99.99
2018-10-16T16:40:32.474Z,99.99
2018-10-16T16:42:25.262Z,99.99
2018-10-16T16:43:25.221Z,99.99
2018-10-16T16:45:17.969Z,99.99
2018-10-16T16:46:17.898Z,99.99
2018-10-16T16:48:09.929Z,99.99
2018-10-16T16:49:09.754Z,99.99
2018-10-16T16:51:02.943Z,99.99
2018-10-16T16:52:02.822Z,99.99
2018-10-16T16:53:55.651Z,99.99
2018-10-16T16:54:55.631Z,99.99
2018-10-16T16:56:48.303Z,99.99
2018-10-16T16:57:48.245Z,99.99
2018-10-16T16:59:41.076Z,99.99
2018-10-16T17:00:40.988Z,99.99
2018-10-16T17:02:33.797Z,99.99
2018-10-16T17:03:33.755Z,99.99
2018-10-16T17:05:26.519Z,99.99
2018-10-16T17:06:26.442Z,99.99
2018-10-16T17:08:19.290Z,99.99
2018-10-16T17:09:19.178Z,99.99
2018-10-16T17:11:11.949Z,99.99
2018-10-16T17:12:11.887Z,99.99
2018-10-16T17:14:04.721Z,99.99
2018-10-16T17:15:04.606Z,99.99
2018-10-16T17:16:56.529Z,99.99
2018-10-16T17:17:56.470Z,99.99
2018-10-16T17:19:48.359Z,99.99
2018-10-16T17:20:48.300Z,99.99
2018-10-16T17:22:40.159Z,99.99
2018-10-16T17:23:40.188Z,99.99
2018-10-16T17:25:33.157Z,99.99
2018-10-16T17:26:32.890Z,99.99
2018-10-16T17:28:25.673Z,99.99
2018-10-16T17:29:25.505Z,99.99
2018-10-16T17:31:18.356Z,99.99
2018-10-16T17:32:18.201Z,99.99
2018-10-16T17:34:11.065Z,99.99
2018-10-16T17:35:10.962Z,99.99
2018-10-16T17:37:03.740Z,99.99
2018-10-16T17:38:03.623Z,99.99
2018-10-16T17:39:56.589Z,99.99
2018-10-16T17:40:56.449Z,99.99
2018-10-16T17:42:49.257Z,99.99
2018-10-16T17:43:49.156Z,99.99
2018-10-16T17:45:41.123Z,99.99
2018-10-16T17:46:41.067Z,99.99
2018-10-16T17:48:33.837Z,99.99
2018-10-16T17:49:33.751Z,99.99
2018-10-16T17:51:26.508Z,99.99
2018-10-16T17:52:26.442Z,99.99
2018-10-16T17:54:19.225Z,99.99
2018-10-16T17:55:19.143Z,99.99
2018-10-16T17:57:12.038Z,99.99
2018-10-16T17:58:11.941Z,99.99
2018-10-16T18:00:04.724Z,99.99
2018-10-16T18:01:04.652Z,99.99
2018-10-16T18:02:56.483Z,99.99
2018-10-16T18:03:56.388Z,99.99
2018-10-16T18:05:49.160Z,99.99
2018-10-16T18:06:49.091Z,99.99
2018-10-16T18:08:40.845Z,99.99
2018-10-16T18:09:40.771Z,99.99
2018-10-16T18:11:33.537Z,99.99
2018-10-16T18:12:33.476Z,99.99
2018-10-16T18:14:26.260Z,99.99
2018-10-16T18:15:26.183Z,99.99
2018-10-16T18:17:18.083Z,99.99
2018-10-16T18:18:18.094Z,99.99
2018-10-16T18:20:10.804Z,99.99
2018-10-16T18:21:10.781Z,99.99
2018-10-16T18:23:03.499Z,99.99
2018-10-16T18:24:03.424Z,99.99
2018-10-16T18:25:55.219Z,99.99
2018-10-16T18:26:55.171Z,99.99
2018-10-16T18:28:47.062Z,99.99
2018-10-16T18:29:47.025Z,99.99
2018-10-16T18:31:39.762Z,99.99
2018-10-16T18:32:39.678Z,99.99